North Huntingdon, Pennsylvania
Current Conditions -  °F | °C
As of 3:53 AM on Thursday 18 Dec 2014 (Local Time) from KAGC Reporting Station
Overcast Overcast  
Wind Chill: 20°   Ceiling: 2100
Heat Index: 27°   Visibility: 10mi
Dew Point: 17°   Wind: 6mph
Humidity: 66%   Direction: 290°WNW
Pressure: 30.15"   Gusts: NA
Location:  40.3156°N, 79.724°W
Report Text: KAGC 180853Z AUTO 29005KT 10SM OVC021 M03/M08 A3015 RMK AO2 SLP230 T10281083 51009 TSNO
Loading
Personal Weather Stations






























Interactive Weather Map New forecast layout! Learn more

10-Day Weather Forecast

Advertisements
Track Severe Weather on mobile